Time;durP1;ratioP1;P1;durP2;ratioP2;P2;SDS_P1;SDS_P2;PMS_P1;PMS_P2;Temp;Humidity;BMP_temperature;BMP_pressure;BME280_temperature;BME280_humidity;BME280_pressure;Samples;Min_cycle;Max_cycle;Signal;HPM_P1;HPM_P2
2021/06/06 00:01:02;;;;;;;19.10;9.45;;;;;;;-142.75;67.00;77907.09;5070826;28;20512;-74
2021/06/06 00:03:31;;;;;;;17.10;10.18;;;;;;;-142.75;66.89;77895.28;5071976;28;20077;-74
2021/06/06 00:05:58;;;;;;;23.75;10.02;;;;;;;-142.75;66.95;77901.19;5070410;28;20028;-74
2021/06/06 00:08:26;;;;;;;21.60;10.27;;;;;;;-142.75;66.40;77889.38;5070512;28;20020;-73
2021/06/06 00:10:55;;;;;;;18.42;10.15;;;;;;;-142.75;66.39;77885.44;5070651;28;20105;-74
2021/06/06 00:13:21;;;;;;;17.15;9.57;;;;;;;-142.75;66.38;77893.31;5070490;28;20032;-74
2021/06/06 00:15:46;;;;;;;18.27;9.63;;;;;;;-142.75;66.48;77893.31;5071622;28;20428;-74
2021/06/06 00:18:12;;;;;;;;;;;;;;;-142.75;66.36;77885.44;5072259;28;20021;-74
2021/06/06 00:20:38;;;;;;;21.38;11.15;;;;;;;-142.75;66.16;77881.50;5071855;28;19995;-74
2021/06/06 00:23:04;;;;;;;;;;;;;;;-142.75;66.13;77885.44;5072066;28;20060;-74
2021/06/06 00:25:29;;;;;;;19.52;10.10;;;;;;;-142.75;65.69;77873.63;5071414;28;20609;-74
2021/06/06 00:27:54;;;;;;;;;;;;;;;-142.75;65.78;77881.50;5071978;28;20035;-75
2021/06/06 00:30:20;;;;;;;18.52;9.63;;;;;;;-142.75;65.88;77891.34;5071520;28;20354;-74
2021/06/06 00:32:45;;;;;;;21.67;10.52;;;;;;;-142.75;66.22;77893.31;5071339;28;20119;-74
2021/06/06 00:35:12;;;;;;;20.35;10.10;;;;;;;-142.75;66.64;77889.38;5071375;28;20029;-74
2021/06/06 00:37:37;;;;;;;14.75;10.02;;;;;;;-142.75;66.88;77889.38;5071110;28;20576;-73
2021/06/06 00:40:04;;;;;;;15.18;10.40;;;;;;;-142.75;66.50;77897.25;5071505;28;20116;-73
2021/06/06 00:42:30;;;;;;;19.42;9.95;;;;;;;-142.75;66.80;77899.22;5071379;28;20028;-74
2021/06/06 00:44:55;;;;;;;21.42;11.32;;;;;;;-142.75;66.21;77893.31;5069936;28;20049;-73
2021/06/06 00:47:20;;;;;;;;;;;;;;;-142.75;65.78;77889.38;5070740;28;20031;-74
2021/06/06 00:49:45;;;;;;;18.58;11.35;;;;;;;-142.75;65.96;77893.31;5071426;28;20407;-74
2021/06/06 00:52:15;;;;;;;16.20;10.05;;;;;;;-142.75;66.45;77905.13;5071160;28;20489;-74
2021/06/06 00:54:44;;;;;;;19.38;9.07;;;;;;;-142.75;66.78;77913.03;5071223;28;20028;-74
2021/06/06 00:57:15;;;;;;;20.88;9.20;;;;;;;-142.75;66.45;77907.09;5071069;28;20033;-74
2021/06/06 00:59:45;;;;;;;14.65;8.27;;;;;;;-142.75;65.47;77901.19;5071016;28;20054;-74
2021/06/06 01:02:11;;;;;;;13.00;8.25;;;;;;;-142.75;65.80;77907.09;5069908;28;20024;-73
2021/06/06 01:04:39;;;;;;;16.50;8.63;;;;;;;-142.75;65.92;77909.06;5071130;28;20044;-74
2021/06/06 01:07:05;;;;;;;17.83;8.55;;;;;;;-142.75;65.80;77909.06;5069321;28;20029;-73
2021/06/06 01:09:30;;;;;;;18.15;10.05;;;;;;;-142.75;65.96;77911.06;5069629;28;20028;-74
2021/06/06 01:12:15;;;;;;;18.25;8.88;;;;;;;-142.75;65.86;77913.03;5069780;28;20068;-75
2021/06/06 01:14:44;;;;;;;14.57;9.18;;;;;;;-142.75;65.99;77924.84;5071073;28;20027;-74
2021/06/06 01:17:26;;;;;;;21.45;9.32;;;;;;;-142.75;65.90;77930.75;5070690;28;20096;-74
2021/06/06 01:20:07;;;;;;;17.45;9.45;;;;;;;-142.75;66.17;77932.72;5069592;28;20027;-74
2021/06/06 01:22:53;;;;;;;18.92;10.00;;;;;;;-142.75;66.15;77950.44;5070731;28;20398;-74
2021/06/06 01:25:25;;;;;;;16.20;9.73;;;;;;;-142.75;66.07;77960.28;5069536;28;20021;-73
2021/06/06 01:28:03;;;;;;;14.80;9.13;;;;;;;-142.75;66.27;77970.13;5069267;28;20048;-74
2021/06/06 01:30:34;;;;;;;15.07;10.27;;;;;;;-142.75;66.21;77972.09;5070778;28;20028;-74
2021/06/06 01:33:05;;;;;;;17.80;10.45;;;;;;;-142.75;66.14;77981.94;5070762;28;20448;-74
2021/06/06 01:35:43;;;;;;;16.42;10.75;;;;;;;-142.75;66.49;77981.94;5070280;28;20631;-74
2021/06/06 01:38:17;;;;;;;17.85;10.05;;;;;;;-142.75;66.37;77983.91;5069358;28;20432;-74
2021/06/06 01:40:46;;;;;;;17.10;9.93;;;;;;;-142.75;66.46;77991.78;5070750;28;20485;-74
2021/06/06 01:43:16;;;;;;;16.98;10.75;;;;;;;-142.75;66.45;77987.84;5070647;28;20032;-74
2021/06/06 01:45:50;;;;;;;17.73;11.15;;;;;;;-142.75;66.47;77991.78;5068875;28;20029;-73
2021/06/06 01:48:15;;;;;;;17.38;11.02;;;;;;;-142.75;66.54;77983.91;5069267;28;20036;-74
2021/06/06 01:50:49;;;;;;;21.35;11.73;;;;;;;-142.75;66.71;77995.72;5069249;28;20493;-74
2021/06/06 01:53:17;;;;;;;21.17;11.05;;;;;;;-142.75;66.71;77999.66;5070370;28;20027;-74
2021/06/06 01:55:53;;;;;;;20.35;10.98;;;;;;;-142.75;66.62;78011.47;5070483;28;20100;-74
2021/06/06 01:58:20;;;;;;;17.67;11.73;;;;;;;-142.75;66.85;78003.59;5073225;28;20026;-74
2021/06/06 02:00:56;;;;;;;21.00;12.55;;;;;;;-142.75;66.84;78007.53;5074580;28;20035;-74
2021/06/06 02:03:22;;;;;;;20.98;11.27;;;;;;;-142.75;66.75;78013.44;5074375;28;20024;-74
2021/06/06 02:05:48;;;;;;;20.88;12.40;;;;;;;-142.75;66.88;78015.41;5072734;28;20052;-74
2021/06/06 02:08:18;;;;;;;20.88;11.60;;;;;;;-142.75;66.88;78015.41;5074158;28;20043;-74
2021/06/06 02:10:49;;;;;;;16.92;11.07;;;;;;;-142.75;66.86;78011.47;5074009;28;20520;-73
2021/06/06 02:13:23;;;;;;;18.98;11.75;;;;;;;-142.75;67.22;78025.25;5074070;28;20030;-74
2021/06/06 02:15:52;;;;;;;20.73;12.43;;;;;;;-142.75;67.16;78021.31;5072937;28;20472;-74
2021/06/06 02:18:18;;;;;;;21.23;12.32;;;;;;;-142.75;67.32;78035.09;5074004;28;20031;-74
2021/06/06 02:20:46;;;;;;;24.63;12.55;;;;;;;-142.75;67.42;78027.22;5072711;28;20020;-74
2021/06/06 02:23:15;;;;;;;18.52;12.23;;;;;;;-142.75;67.25;78019.34;5073801;28;20028;-74
2021/06/06 02:25:41;;;;;;;24.80;12.40;;;;;;;-142.75;67.28;78023.28;5073538;28;20029;-74
2021/06/06 02:28:20;;;;;;;22.83;12.35;;;;;;;-142.75;67.46;78037.06;5073963;28;20047;-74
2021/06/06 02:30:54;;;;;;;22.75;12.75;;;;;;;-142.75;67.72;78039.03;5073975;28;20394;-73
2021/06/06 02:33:22;;;;;;;20.15;13.10;;;;;;;-142.75;67.74;78044.94;5072608;28;20032;-74
2021/06/06 02:35:55;;;;;;;22.27;11.27;;;;;;;-142.75;67.68;78039.03;5073483;28;20024;-74
2021/06/06 02:38:47;;;;;;;20.52;12.70;;;;;;;-142.75;67.69;78042.97;5073761;28;20024;-74
2021/06/06 02:41:21;;;;;;;20.73;11.98;;;;;;;-142.75;67.74;78037.06;5073725;28;20108;-75
2021/06/06 02:44:08;;;;;;;19.60;13.15;;;;;;;-142.75;67.72;78044.94;5073662;28;20400;-74
2021/06/06 02:46:35;;;;;;;23.20;12.38;;;;;;;-142.75;67.76;78050.84;5073253;28;20031;-74
2021/06/06 02:49:08;;;;;;;24.35;11.82;;;;;;;-142.75;67.90;78054.81;5071984;28;20389;-74
2021/06/06 02:51:39;;;;;;;20.70;11.02;;;;;;;-142.75;67.98;78050.84;5072250;28;20044;-74
2021/06/06 02:54:19;;;;;;;18.90;11.75;;;;;;;-142.75;67.90;78052.81;5071975;28;20107;-74
2021/06/06 02:56:53;;;;;;;23.13;12.00;;;;;;;-142.75;67.84;78054.81;5071672;28;20020;-74
2021/06/06 02:59:25;;;;;;;21.17;12.10;;;;;;;-142.75;67.99;78054.81;5071876;28;20020;-74
2021/06/06 03:01:58;;;;;;;18.85;11.88;;;;;;;-142.75;67.97;78068.59;5073190;28;20027;-73
2021/06/06 03:04:25;;;;;;;15.85;10.93;;;;;;;-142.75;67.97;78066.63;5071798;28;20158;-74
2021/06/06 03:06:56;;;;;;;16.95;11.32;;;;;;;-142.75;67.97;78076.47;5072738;28;20030;-74
2021/06/06 03:09:23;;;;;;;16.38;11.23;;;;;;;-142.75;68.12;78092.22;5071099;28;20035;-74
2021/06/06 03:11:52;;;;;;;22.67;12.25;;;;;;;-142.75;68.26;78090.25;5073091;28;20062;-74
2021/06/06 03:14:21;;;;;;;20.77;12.13;;;;;;;-142.75;68.38;78090.25;5072762;28;20567;-74
2021/06/06 03:16:55;;;;;;;19.67;11.75;;;;;;;-142.75;68.39;78092.22;5072668;28;20024;-74
2021/06/06 03:19:24;;;;;;;21.50;12.52;;;;;;;-142.75;68.33;78078.44;5072882;28;20031;-74
2021/06/06 03:21:51;;;;;;;22.48;12.85;;;;;;;-142.75;68.22;78084.34;5072899;28;20032;-74
2021/06/06 03:24:23;;;;;;;23.88;12.80;;;;;;;-142.75;68.30;78082.38;5071405;28;20019;-74
2021/06/06 03:26:50;;;;;;;19.50;11.88;;;;;;;-142.75;68.32;78094.19;5072445;28;20063;-74
2021/06/06 03:29:20;;;;;;;24.75;12.70;;;;;;;-142.75;68.39;78090.25;5071328;28;20032;-74
2021/06/06 03:31:51;;;;;;;19.73;11.90;;;;;;;-142.75;68.30;78098.13;5071333;28;20031;-74
2021/06/06 03:34:17;;;;;;;20.75;11.35;;;;;;;-142.75;68.14;78098.13;5071314;28;20119;-73
2021/06/06 03:36:44;;;;;;;18.58;11.45;;;;;;;-142.75;68.12;78106.00;5070928;28;20497;-74
2021/06/06 03:39:14;;;;;;;19.10;11.25;;;;;;;-142.75;68.16;78098.13;5072461;28;20082;-74
2021/06/06 03:41:40;;;;;;;20.50;11.50;;;;;;;-142.75;68.27;78113.88;5072416;28;20445;-73
2021/06/06 03:44:06;;;;;;;18.52;11.60;;;;;;;-142.75;68.36;78113.88;5071036;28;20116;-74
2021/06/06 03:46:31;;;;;;;;;;;;;;;-142.75;68.22;78106.00;5071157;28;20082;-74
2021/06/06 03:48:58;;;;;;;20.80;12.40;;;;;;;-142.75;68.32;78106.00;5070822;28;20489;-74
2021/06/06 03:51:24;;;;;;;20.02;11.77;;;;;;;-142.75;68.25;78111.91;5072302;28;20039;-74
2021/06/06 03:53:50;;;;;;;20.92;11.85;;;;;;;-142.75;68.37;78109.94;5070649;28;20508;-74
2021/06/06 03:56:16;;;;;;;20.27;11.02;;;;;;;-142.75;68.29;78102.06;5071883;28;20030;-74
2021/06/06 03:58:42;;;;;;;19.88;11.15;;;;;;;-142.75;68.31;78109.94;5072033;28;20436;-74
2021/06/06 04:01:07;;;;;;;;;;;;;;;-142.75;68.44;78107.97;5071151;28;20557;-74
2021/06/06 04:03:33;;;;;;;17.08;11.20;;;;;;;-142.75;68.35;78094.19;5071776;28;19999;-74
2021/06/06 04:06:01;;;;;;;21.52;10.77;;;;;;;-142.75;68.22;78092.22;5071703;28;20032;-74
2021/06/06 04:08:26;;;;;;;17.23;11.00;;;;;;;-142.75;68.15;78090.25;5070487;28;20052;-74
2021/06/06 04:10:52;;;;;;;17.17;10.88;;;;;;;-142.75;68.16;78084.34;5070602;28;20434;-74
2021/06/06 04:13:18;;;;;;;;;;;;;;;-142.75;68.18;78082.38;5072209;28;20111;-74
2021/06/06 04:15:43;;;;;;;19.52;11.10;;;;;;;-142.75;68.18;78074.50;5070137;28;19991;-74
2021/06/06 04:18:23;;;;;;;15.02;9.93;;;;;;;-142.75;68.20;78076.47;5071607;28;20036;-74
2021/06/06 04:20:49;;;;;;;16.27;11.10;;;;;;;-142.75;68.18;78070.56;5069413;28;20054;-73
2021/06/06 04:23:16;;;;;;;15.40;10.68;;;;;;;-142.75;68.12;78070.56;5070294;28;20078;-74
2021/06/06 04:25:42;;;;;;;18.35;10.75;;;;;;;-142.75;68.01;78066.63;5071164;28;20063;-74
2021/06/06 04:28:08;;;;;;;16.83;10.25;;;;;;;-142.75;67.87;78062.69;5071353;28;20016;-74
2021/06/06 04:30:34;;;;;;;18.30;10.43;;;;;;;-142.75;67.90;78062.69;5070078;28;20055;-74
2021/06/06 04:33:02;;;;;;;15.95;10.60;;;;;;;-142.75;68.06;78062.69;5071384;28;20502;-74
2021/06/06 04:35:28;;;;;;;16.48;10.52;;;;;;;-142.75;68.00;78060.72;5071040;28;20031;-73
2021/06/06 04:37:53;;;;;;;14.52;9.73;;;;;;;-142.75;67.59;78050.84;5071449;28;20062;-74
2021/06/06 04:40:18;;;;;;;15.60;9.23;;;;;;;-142.75;67.38;78048.88;5071350;28;20063;-74
2021/06/06 04:42:44;;;;;;;;;;;;;;;-142.75;67.12;78041.00;5071593;28;20044;-74
2021/06/06 04:45:12;;;;;;;13.68;9.27;;;;;;;-142.75;67.04;78033.13;5069916;28;20014;-74
2021/06/06 04:47:37;;;;;;;15.82;9.13;;;;;;;-142.75;66.93;78015.41;5071012;28;20020;-74
2021/06/06 04:50:08;;;;;;;15.85;7.93;;;;;;;-142.75;66.52;78015.41;5071208;28;20166;-75
2021/06/06 04:55:20;;;;;;;13.38;7.90;;;;;;;-142.75;66.66;78019.34;5047858;28;20048;-75
2021/06/06 04:57:46;;;;;;;11.80;8.32;;;;;;;-142.75;66.15;77995.72;5048411;28;20032;-74
2021/06/06 05:00:19;;;;;;;13.52;8.38;;;;;;;-142.75;65.87;77991.78;5049651;28;20074;-75
2021/06/06 05:02:44;;;;;;;10.65;7.05;;;;;;;-142.75;66.24;77979.97;5049526;28;20085;-74
2021/06/06 05:05:10;;;;;;;12.82;6.63;;;;;;;-142.75;65.40;77974.06;5049538;28;20032;-74
2021/06/06 05:07:36;;;;;;;13.20;6.97;;;;;;;-142.75;65.24;77968.16;5050539;28;20056;-73
2021/06/06 05:10:05;;;;;;;13.30;6.75;;;;;;;-142.75;64.96;77946.50;5050425;28;20067;-74
2021/06/06 05:12:31;;;;;;;13.93;6.80;;;;;;;-142.75;64.72;77942.56;5050738;28;20382;-74
2021/06/06 05:14:56;;;;;;;10.00;6.57;;;;;;;-142.75;64.51;77932.72;5050763;28;20024;-75
2021/06/06 05:17:21;;;;;;;;;;;;;;;-142.75;64.60;77928.78;5051033;28;20040;-74
2021/06/06 05:19:46;;;;;;;10.95;5.97;;;;;;;-142.75;63.81;77907.09;5050727;28;20041;-74
2021/06/06 05:22:12;;;;;;;8.57;5.55;;;;;;;-142.75;63.52;77887.41;5049479;28;20025;-74
2021/06/06 05:24:38;;;;;;;11.45;5.47;;;;;;;-142.75;63.59;77871.66;5049066;28;20027;-74
2021/06/06 05:27:04;;;;;;;7.88;4.90;;;;;;;-142.75;62.64;77846.06;5049061;28;20029;-74
2021/06/06 05:29:30;;;;;;;9.52;4.78;;;;;;;-142.75;62.15;77824.41;5049200;28;20021;-73
2021/06/06 05:31:55;;;;;;;9.30;4.50;;;;;;;-142.75;61.43;77800.78;5052036;28;20032;-74
2021/06/06 05:34:20;;;;;;;;;;;;;;;-142.75;61.48;77775.19;5056201;28;20428;-74
2021/06/06 05:36:46;;;;;;;7.90;4.30;;;;;;;-142.75;60.99;77749.59;5056889;28;19966;-74
2021/06/06 05:39:11;;;;;;;9.68;4.35;;;;;;;-142.75;60.59;77727.94;5055870;28;20577;-75
2021/06/06 05:41:38;;;;;;;5.85;3.50;;;;;;;-142.75;59.79;77692.47;5055917;28;20020;-73
2021/06/06 05:44:05;;;;;;;8.18;3.40;;;;;;;-142.75;59.07;77657.03;5055845;28;20033;-75
2021/06/06 05:46:31;;;;;;;7.13;2.95;;;;;;;-142.75;56.66;77645.22;5054347;28;20017;-74
2021/06/06 05:48:56;;;;;;;;;;;;;;;-142.75;57.47;77617.66;5056139;28;20050;-75
2021/06/06 05:51:21;;;;;;;11.43;3.60;;;;;;;-142.75;56.17;77605.84;5057081;28;20394;-74
2021/06/06 05:53:46;;;;;;;;;;;;;;;-142.75;55.95;77574.34;5055974;28;20033;-74
2021/06/06 05:56:12;;;;;;;5.50;3.05;;;;;;;-142.75;55.13;77550.72;5056757;28;19916;-75
2021/06/06 05:58:39;;;;;;;6.68;3.10;;;;;;;-142.75;55.31;77501.50;5055779;28;20459;-75
2021/06/06 06:01:05;;;;;;;5.80;2.70;;;;;;;-142.75;52.81;77471.97;5056901;28;20119;-75
2021/06/06 06:03:30;;;;;;;;;;;;;;;-142.75;53.01;77430.59;5057434;28;20029;-74
2021/06/06 06:05:55;;;;;;;5.68;2.63;;;;;;;-142.75;51.45;77414.84;5055322;28;20384;-75
2021/06/06 06:08:31;;;;;;;;;;;;;;;-142.75;52.15;77405.00;5056061;28;20021;-74
2021/06/06 06:10:58;;;;;;;4.05;2.22;;;;;;;-142.75;51.39;77373.50;5055677;28;19923;-74
2021/06/06 06:13:26;;;;;;;8.18;2.78;;;;;;;-142.75;51.79;77334.13;5056865;28;20470;-74
2021/06/06 06:15:52;;;;;;;6.72;2.55;;;;;;;-142.75;50.40;77306.56;5055365;28;20024;-74
2021/06/06 06:18:18;;;;;;;;;;;;;;;-142.75;51.03;77271.13;5056146;28;20021;-74
2021/06/06 06:20:44;;;;;;;6.40;2.25;;;;;;;-142.75;49.59;77227.81;5056657;28;19917;-74
2021/06/06 06:23:09;;;;;;;;;;;;;;;-142.75;48.68;77194.34;5055956;28;20033;-74
2021/06/06 06:25:35;;;;;;;5.50;2.08;;;;;;;-142.75;48.54;77204.19;5056443;28;19932;-75
2021/06/06 06:28:00;;;;;;;4.22;1.90;;;;;;;-142.75;46.67;77200.25;5056896;28;20033;-74
2021/06/06 06:30:30;;;;;;;3.75;2.00;;;;;;;-142.75;49.23;77194.34;5056709;28;20040;-74
2021/06/06 06:32:56;;;;;;;5.22;2.42;;;;;;;-142.75;48.00;77168.75;5056644;28;20028;-75
2021/06/06 06:35:22;;;;;;;4.13;2.25;;;;;;;-142.75;46.78;77178.59;5055112;28;20498;-74
2021/06/06 06:37:47;;;;;;;;;;;;;;;-142.75;46.81;77170.72;5055826;28;20029;-75
2021/06/06 06:40:14;;;;;;;3.13;1.80;;;;;;;-142.75;45.97;77149.06;5056648;28;19916;-74
2021/06/06 06:42:41;;;;;;;5.50;2.42;;;;;;;-142.75;45.32;77143.16;5056555;28;20041;-75
2021/06/06 06:45:09;;;;;;;6.00;2.47;;;;;;;-142.75;46.92;77125.44;5052751;28;20436;-74
2021/06/06 06:47:34;;;;;;;7.25;2.72;;;;;;;-142.75;46.32;77064.41;5052793;28;20087;-76
2021/06/06 06:49:59;;;;;;;6.70;2.35;;;;;;;-142.75;44.66;77007.31;5052014;28;20434;-74
2021/06/06 06:52:25;;;;;;;;;;;;;;;-142.75;44.29;76971.88;5052507;28;20104;-74
2021/06/06 06:54:51;;;;;;;4.25;2.35;;;;;;;-142.75;44.50;76930.53;5053106;28;20422;-76
2021/06/06 06:57:16;;;;;;;5.55;2.78;;;;;;;-142.75;44.83;76901.00;5052966;28;20147;-75
2021/06/06 06:59:42;;;;;;;4.50;2.60;;;;;;;-142.75;43.91;76873.44;5051806;28;20021;-75
2021/06/06 07:02:07;;;;;;;;;;;;;;;-142.75;43.21;76839.97;5052301;28;20033;-72
2021/06/06 07:04:33;;;;;;;5.07;2.90;;;;;;;-142.75;42.54;76826.19;5051722;28;19916;-75
2021/06/06 07:06:58;;;;;;;4.80;2.80;;;;;;;-142.75;41.96;76761.25;5052832;28;20155;-75
2021/06/06 07:09:26;;;;;;;5.82;2.85;;;;;;;-142.75;40.94;76721.88;5051481;28;20122;-75
2021/06/06 07:11:53;;;;;;;6.07;2.88;;;;;;;-142.75;40.94;76723.84;5052888;28;20715;-75
2021/06/06 07:14:19;;;;;;;4.72;2.50;;;;;;;-142.75;41.09;76725.81;5050411;28;20067;-76
2021/06/06 07:16:45;;;;;;;5.47;2.70;;;;;;;-142.75;40.40;76696.28;5052498;28;20567;-75
2021/06/06 07:19:10;;;;;;;5.63;2.17;;;;;;;-142.75;40.26;76690.38;5052765;28;20025;-75
2021/06/06 07:21:35;;;;;;;4.45;1.95;;;;;;;-142.75;39.48;76712.03;5051340;28;20067;-75
2021/06/06 07:24:01;;;;;;;5.30;2.55;;;;;;;-142.75;39.74;76704.16;5051152;28;20025;-76
2021/06/06 07:26:35;;;;;;;5.22;2.22;;;;;;;-142.75;39.68;76658.88;5052519;28;20389;-75
2021/06/06 07:29:04;;;;;;;4.60;2.33;;;;;;;-142.75;39.31;76739.59;5052588;28;20028;-75
2021/06/06 07:31:30;;;;;;;5.22;2.45;;;;;;;-142.75;39.91;76686.44;5052436;28;20029;-74
2021/06/06 07:33:55;;;;;;;6.03;2.38;;;;;;;-142.75;39.77;76688.41;5052408;28;20024;-76
2021/06/06 07:36:21;;;;;;;4.35;2.40;;;;;;;-142.75;39.78;76629.34;5050949;28;20071;-74
2021/06/06 07:38:51;;;;;;;2.50;1.73;;;;;;;-142.75;39.06;76558.47;5051068;28;20029;-74
2021/06/06 07:41:18;;;;;;;4.82;1.90;;;;;;;-142.75;38.57;76507.31;5052171;28;20521;-75
2021/06/06 07:43:43;;;;;;;4.47;2.47;;;;;;;-142.75;37.48;76479.75;5052283;28;20032;-75
2021/06/06 07:46:10;;;;;;;3.38;2.25;;;;;;;-142.75;36.67;76456.13;5051929;28;20442;-75
2021/06/06 07:48:35;;;;;;;3.70;2.28;;;;;;;-142.75;36.99;76448.25;5050335;28;20012;-75
2021/06/06 07:51:01;;;;;;;4.30;2.17;;;;;;;-142.75;36.96;76391.16;5050739;28;20083;-76
2021/06/06 07:53:26;;;;;;;2.85;1.88;;;;;;;-142.75;35.64;76353.78;5050700;28;20418;-76
2021/06/06 07:55:54;;;;;;;3.28;1.90;;;;;;;-142.75;35.45;76310.47;5051700;28;20108;-75
2021/06/06 07:58:26;;;;;;;3.53;2.05;;;;;;;-142.75;35.42;76302.59;5051992;28;20047;-76
2021/06/06 08:00:51;;;;;;;6.35;2.03;;;;;;;-142.75;35.91;76292.75;5051951;28;20029;-74
2021/06/06 08:03:17;;;;;;;3.33;2.00;;;;;;;-142.75;35.27;76306.53;5050445;28;20036;-75
2021/06/06 08:05:43;;;;;;;3.40;2.15;;;;;;;-142.75;34.28;76278.97;5051644;28;20029;-75
2021/06/06 08:08:11;;;;;;;3.42;2.10;;;;;;;-142.75;34.68;76271.09;5051722;28;20156;-75
2021/06/06 08:10:40;;;;;;;2.78;1.80;;;;;;;-142.75;35.20;76239.59;5051802;28;20033;-74
2021/06/06 08:13:05;;;;;;;2.95;1.90;;;;;;;-142.75;36.07;76212.03;5051814;28;20537;-75
2021/06/06 08:15:32;;;;;;;4.00;1.65;;;;;;;-142.75;34.85;76188.44;5051311;28;20147;-74
2021/06/06 08:18:01;;;;;;;6.50;1.77;;;;;;;-142.75;33.96;76225.81;5050243;28;20107;-75
2021/06/06 08:20:30;;;;;;;3.38;1.65;;;;;;;-142.75;33.08;76215.97;5051706;28;20039;-76
2021/06/06 08:22:56;;;;;;;2.95;1.65;;;;;;;-142.75;33.23;76158.91;5051355;28;20517;-75
2021/06/06 08:25:22;;;;;;;4.38;1.98;;;;;;;-142.75;33.33;76168.75;5051186;28;20029;-73
2021/06/06 08:27:49;;;;;;;5.28;2.42;;;;;;;-142.75;32.90;76158.91;5049590;28;20025;-76
2021/06/06 08:30:31;;;;;;;4.03;1.80;;;;;;;-142.75;32.30;76149.06;5051399;28;20029;-74
2021/06/06 08:32:57;;;;;;;5.72;2.10;;;;;;;-142.75;33.14;76105.75;5051354;28;20147;-74
2021/06/06 08:35:22;;;;;;;6.13;2.50;;;;;;;-142.75;33.94;76101.81;5048501;28;20151;-73
2021/06/06 08:37:47;;;;;;;4.80;2.08;;;;;;;-142.75;32.57;76129.38;5050182;28;20028;-75
2021/06/06 08:40:37;;;;;;;6.65;2.35;;;;;;;-142.75;33.55;76212.03;5049961;28;20025;-76
2021/06/06 08:43:05;;;;;;;5.20;2.10;;;;;;;-142.75;33.81;76223.84;5049343;28;20032;-74
2021/06/06 08:45:46;;;;;;;5.85;1.92;;;;;;;-142.75;33.95;76180.56;5049827;28;20441;-75
2021/06/06 08:48:11;;;;;;;4.72;1.80;;;;;;;-142.75;33.11;76149.06;5050367;28;20017;-75
2021/06/06 08:50:39;;;;;;;6.30;2.35;;;;;;;-142.75;33.24;76078.19;5050937;28;20035;-75
2021/06/06 08:53:33;;;;;;;4.07;1.88;;;;;;;-142.75;33.04;76117.56;5049277;28;21746;-75
2021/06/06 08:55:58;;;;;;;4.10;1.85;;;;;;;-142.75;31.92;76048.69;5049412;28;20025;-75
2021/06/06 08:58:52;;;;;;;4.78;1.75;;;;;;;-142.75;32.64;75995.53;5049620;28;20462;-75
2021/06/06 09:01:31;;;;;;;4.55;2.00;;;;;;;-142.75;31.68;76050.66;5049869;28;20497;-76
2021/06/06 09:03:59;;;;;;;6.05;1.85;;;;;;;-142.75;31.82;76029.00;5049872;28;20029;-75
2021/06/06 09:06:36;;;;;;;3.17;1.80;;;;;;;-142.75;32.69;75981.75;5049741;28;20021;-75
2021/06/06 09:09:02;;;;;;;4.38;1.63;;;;;;;-142.75;31.34;75958.16;5032565;28;20441;-75
2021/06/06 09:11:31;;;;;;;6.28;1.80;;;;;;;-142.75;31.80;75942.41;5048128;28;20068;-75
2021/06/06 09:13:57;;;;;;;3.85;1.38;;;;;;;-142.75;31.04;75932.56;5048076;28;20040;-75
2021/06/06 09:16:26;;;;;;;3.83;1.52;;;;;;;-142.75;30.53;75903.03;5048250;28;20081;-75
2021/06/06 09:19:05;;;;;;;3.95;1.77;;;;;;;-142.75;30.89;75910.91;5049097;28;20395;-75
2021/06/06 09:21:30;;;;;;;4.28;1.85;;;;;;;-142.75;31.40;75861.69;5050112;28;20029;-73
2021/06/06 09:24:13;;;;;;;3.35;1.60;;;;;;;-142.75;29.56;75822.34;5048850;28;20043;-75
2021/06/06 09:26:39;;;;;;;5.10;1.73;;;;;;;-142.75;29.64;75865.63;5049592;28;20112;-75
2021/06/06 09:29:24;;;;;;;3.10;1.50;;;;;;;-142.75;29.61;75840.06;5050290;28;20028;-76
2021/06/06 09:31:50;;;;;;;2.78;1.23;;;;;;;-142.75;29.33;75912.88;5049690;28;20071;-74
2021/06/06 09:34:22;;;;;;;3.90;1.25;;;;;;;-142.75;30.04;75948.31;5050358;28;20027;-77
2021/06/06 09:37:11;;;;;;;3.72;1.20;;;;;;;-142.75;29.21;75952.25;5048742;28;20041;-73
2021/06/06 09:39:40;;;;;;;3.22;1.17;;;;;;;-142.75;29.99;75936.50;5050287;28;20021;-76
2021/06/06 09:42:21;;;;;;;2.17;0.90;;;;;;;-142.75;28.66;75928.63;5050469;28;20108;-75
2021/06/06 09:45:00;;;;;;;3.95;1.20;;;;;;;-142.75;28.84;75903.03;5049186;28;20028;-76
2021/06/06 09:47:25;;;;;;;3.67;0.90;;;;;;;-142.75;28.84;75883.34;5050192;28;20029;-76
2021/06/06 09:50:03;;;;;;;1.80;0.73;;;;;;;-142.75;28.58;75940.44;5048488;28;20028;-76
2021/06/06 09:52:41;;;;;;;2.83;0.95;;;;;;;-142.75;29.38;75926.66;5049061;28;20025;-76
2021/06/06 09:55:29;;;;;;;1.77;0.82;;;;;;;-142.75;28.50;75847.94;5049860;28;20029;-76
2021/06/06 09:58:09;;;;;;;1.65;0.85;;;;;;;-142.75;28.42;75816.44;5049098;28;20048;-74
2021/06/06 10:00:44;;;;;;;4.95;1.10;;;;;;;-142.75;28.21;75784.94;5049509;28;20028;-76
2021/06/06 10:03:25;;;;;;;2.40;0.80;;;;;;;-142.75;27.00;75759.38;5050107;28;20020;-75
2021/06/06 10:05:52;;;;;;;4.03;0.90;;;;;;;-142.75;28.30;75767.22;5049998;28;20035;-75
2021/06/06 10:08:28;;;;;;;1.92;0.80;;;;;;;-142.75;27.84;75773.13;5050127;28;20035;-76
2021/06/06 10:11:07;;;;;;;2.38;0.90;;;;;;;-142.75;28.11;75741.66;5050352;28;20029;-76
2021/06/06 10:13:35;;;;;;;2.45;0.77;;;;;;;-142.75;27.36;75700.31;5050135;28;20028;-77
2021/06/06 10:16:16;;;;;;;2.42;1.10;;;;;;;-142.75;26.71;75735.75;5049907;28;20063;-77
2021/06/06 10:19:22;;;;;;;2.50;1.00;;;;;;;-142.75;27.24;75781.00;5049106;28;20113;-75
2021/06/06 10:21:50;;;;;;;2.75;0.98;;;;;;;-142.75;26.95;75792.81;5052027;28;20033;-74
2021/06/06 10:24:28;;;;;;;3.65;1.17;;;;;;;-142.75;27.55;75816.44;5053832;28;20383;-75
2021/06/06 10:26:59;;;;;;;2.50;1.17;;;;;;;-142.75;29.04;75810.53;5053586;28;20037;-75
2021/06/06 10:29:36;;;;;;;4.38;1.25;;;;;;;-142.75;28.59;75741.66;5052354;28;20047;-76
2021/06/06 10:32:12;;;;;;;2.10;1.02;;;;;;;-142.75;28.73;75704.25;5052005;28;20083;-77
2021/06/06 10:34:37;;;;;;;;;;;;;;;-142.75;27.68;75668.84;5053223;28;20077;-76
2021/06/06 10:37:04;;;;;;;3.30;1.40;;;;;;;-142.75;29.04;75629.47;5052843;28;19920;-76
2021/06/06 10:39:37;;;;;;;6.57;1.10;;;;;;;-142.75;26.87;75659.00;5053253;28;20028;-76
2021/06/06 10:42:08;;;;;;;2.90;1.27;;;;;;;-142.75;27.04;75688.50;5053655;28;20041;-76
2021/06/06 10:44:53;;;;;;;2.20;1.10;;;;;;;-142.75;29.12;75657.03;5052113;28;20044;-74
2021/06/06 10:47:30;;;;;;;2.85;1.13;;;;;;;-142.75;27.98;75690.47;5051806;28;20031;-76
2021/06/06 10:50:04;;;;;;;2.75;1.33;;;;;;;-142.75;27.65;75706.22;5053289;28;20443;-76
2021/06/06 10:52:38;;;;;;;2.75;1.00;;;;;;;-142.75;27.72;75708.19;5052110;28;20060;-75
2021/06/06 10:55:24;;;;;;;2.80;1.13;;;;;;;-142.75;28.61;75712.13;5054304;28;20468;-75
2021/06/06 10:57:51;;;;;;;3.70;1.30;;;;;;;-142.75;28.44;75680.63;5051962;28;20020;-76
2021/06/06 11:00:37;;;;;;;3.83;1.45;;;;;;;-142.75;28.53;75708.19;5052777;28;20025;-75
2021/06/06 11:03:24;;;;;;;4.80;1.30;;;;;;;-142.75;27.71;75684.56;5052790;28;20032;-75
2021/06/06 11:05:54;;;;;;;3.40;1.60;;;;;;;-142.75;28.32;75714.09;5052805;28;20025;-76
2021/06/06 11:08:28;;;;;;;3.45;1.60;;;;;;;-142.75;27.85;75747.56;5052933;28;20074;-75
2021/06/06 11:11:11;;;;;;;3.10;1.50;;;;;;;-142.75;29.55;75759.38;5052387;28;20434;-76
2021/06/06 11:13:40;;;;;;;2.53;1.08;;;;;;;-142.75;29.28;75765.25;5052884;28;20039;-76
2021/06/06 11:16:19;;;;;;;3.10;1.45;;;;;;;-142.75;29.33;75727.88;5052488;28;20506;-75
2021/06/06 11:18:55;;;;;;;3.47;1.80;;;;;;;-142.75;27.91;75704.25;5051521;28;20017;-76
2021/06/06 11:21:35;;;;;;;4.07;1.60;;;;;;;-142.75;28.53;75690.47;5051573;28;20026;-73
2021/06/06 11:24:05;;;;;;;3.55;1.55;;;;;;;-142.75;29.38;75704.25;5052603;28;20033;-75
2021/06/06 11:26:31;;;;;;;4.18;1.80;;;;;;;-142.75;28.31;75680.63;5051271;28;20024;-76
2021/06/06 11:29:09;;;;;;;5.53;1.73;;;;;;;-142.75;29.51;75806.59;5051221;28;20441;-76
2021/06/06 11:31:40;;;;;;;7.43;2.20;;;;;;;-142.75;30.07;75942.41;5052102;28;20045;-75